Time;durP1;ratioP1;P1;durP2;ratioP2;P2;SDS_P1;SDS_P2;PMS_P1;PMS_P2;Temp;Humidity;BMP_temperature;BMP_pressure;BME280_temperature;BME280_humidity;BME280_pressure;Samples;Min_cycle;Max_cycle;Signal;HPM_P1;HPM_P2
2023/01/26 00:00:54;;;;;;;71.80;39.00;;;;;;;-0.05;86.21;101464.86;214504;1268;72273;-73
2023/01/26 00:05:48;;;;;;;60.60;37.40;;;;;;;-0.03;86.30;101461.77;214507;1265;72796;-74
2023/01/26 00:10:49;;;;;;;71.50;40.20;;;;;;;-0.04;86.25;101461.85;214473;1267;60554;-73
2023/01/26 00:15:42;;;;;;;69.40;40.30;;;;;;;-0.03;86.32;101462.23;214467;1264;66590;-73
2023/01/26 00:20:35;;;;;;;72.10;41.00;;;;;;;-0.02;86.41;101454.95;214416;1266;60506;-74
2023/01/26 00:25:28;;;;;;;68.00;40.80;;;;;;;-0.03;86.19;101451.33;214458;1267;74589;-73
2023/01/26 00:30:21;;;;;;;64.00;39.50;;;;;;;-0.04;86.22;101449.77;214426;1263;60578;-74
2023/01/26 00:35:14;;;;;;;60.80;36.30;;;;;;;-0.03;86.41;101446.39;214525;1267;60725;-73
2023/01/26 00:40:08;;;;;;;62.00;39.00;;;;;;;-0.03;86.46;101443.19;214525;1264;60436;-74
2023/01/26 00:45:01;;;;;;;66.50;39.30;;;;;;;-0.03;86.58;101442.15;214696;1264;60468;-74
2023/01/26 00:49:54;;;;;;;75.90;42.70;;;;;;;-0.01;86.38;101443.12;214666;1263;60435;-75
2023/01/26 00:54:47;;;;;;;66.30;38.00;;;;;;;-0.01;86.54;101434.80;214510;1268;60764;-74
2023/01/26 00:59:40;;;;;;;73.30;42.60;;;;;;;-0.00;86.35;101434.82;214416;1267;60503;-74
2023/01/26 01:04:35;;;;;;;65.30;40.90;;;;;;;-0.01;86.63;101433.77;214481;1268;65832;-74
2023/01/26 01:09:27;;;;;;;62.70;38.40;;;;;;;-0.01;86.52;101424.73;214527;1267;60591;-74
2023/01/26 01:14:20;;;;;;;58.40;36.30;;;;;;;-0.01;86.59;101423.55;214510;1266;63922;-74
2023/01/26 01:19:15;;;;;;;67.20;41.10;;;;;;;-0.02;86.96;101420.40;214494;1268;72022;-74
2023/01/26 01:24:09;;;;;;;68.50;39.40;;;;;;;-0.03;86.58;101413.83;214573;1265;60465;-73
2023/01/26 01:29:03;;;;;;;70.30;41.00;;;;;;;-0.04;86.83;101406.61;214599;1262;65342;-74
2023/01/26 01:33:57;;;;;;;58.30;37.20;;;;;;;-0.04;86.72;101401.46;214500;1264;60525;-74
2023/01/26 01:38:50;;;;;;;69.90;38.60;;;;;;;-0.05;86.76;101393.95;214679;1264;72984;-74
2023/01/26 01:43:43;;;;;;;56.40;35.50;;;;;;;-0.04;86.65;101386.31;214430;1268;60612;-74
2023/01/26 01:48:49;;;;;;;64.30;39.50;;;;;;;-0.04;86.86;101380.36;214472;1267;60469;-74
2023/01/26 01:53:45;;;;;;;63.30;39.80;;;;;;;-0.04;86.76;101378.50;214488;1264;68251;-74
2023/01/26 01:58:42;;;;;;;62.80;38.60;;;;;;;-0.04;86.83;101371.34;214520;1268;60519;-74
2023/01/26 02:03:37;;;;;;;52.60;31.40;;;;;;;-0.03;87.04;101366.61;214495;1267;73187;-74
2023/01/26 02:08:40;;;;;;;60.30;36.30;;;;;;;-0.03;87.14;101362.75;214591;1267;70736;-74
2023/01/26 02:13:37;;;;;;;66.70;39.60;;;;;;;-0.04;87.05;101356.34;214594;1266;60449;-74
2023/01/26 02:18:30;;;;;;;54.50;35.30;;;;;;;-0.04;87.14;101351.22;214467;1264;65642;-74
2023/01/26 02:23:28;;;;;;;58.30;36.10;;;;;;;-0.04;87.11;101346.44;214434;1267;60486;-74
2023/01/26 02:28:22;;;;;;;;;;;;;;;-0.03;87.14;101336.98;214609;1264;74788;-74
2023/01/26 02:33:22;;;;;;;56.60;36.10;;;;;;;-0.04;87.02;101340.63;214519;1268;72528;-74
2023/01/26 02:38:17;;;;;;;58.30;35.20;;;;;;;-0.04;87.16;101333.84;214506;1267;61101;-74
2023/01/26 02:43:11;;;;;;;53.10;34.40;;;;;;;-0.03;87.21;101327.46;214568;1264;66183;-74
2023/01/26 02:48:05;;;;;;;55.30;34.00;;;;;;;-0.02;87.03;101314.39;214536;1264;60504;-74
2023/01/26 02:52:58;;;;;;;50.10;33.10;;;;;;;-0.02;87.23;101312.54;214500;1266;73796;-74
2023/01/26 02:57:53;;;;;;;53.90;33.70;;;;;;;-0.02;87.17;101310.26;214459;1266;70832;-74
2023/01/26 03:02:47;;;;;;;48.50;32.70;;;;;;;-0.01;87.24;101306.13;214435;1264;61340;-74
2023/01/26 03:07:40;;;;;;;50.20;33.50;;;;;;;0.02;87.42;101299.08;214495;1264;65808;-74
2023/01/26 03:12:33;;;;;;;52.20;31.90;;;;;;;0.02;87.17;101295.67;214442;1264;61222;-74
2023/01/26 03:17:27;;;;;;;51.80;33.00;;;;;;;0.03;87.32;101289.09;214730;1264;74575;-74
2023/01/26 03:27:39;;;;;;;45.10;30.80;;;;;;;0.03;87.22;101281.76;214686;1264;61432;-74
2023/01/26 03:32:32;;;;;;;46.60;29.10;;;;;;;0.03;87.38;101267.82;214475;1266;67958;-74
2023/01/26 03:37:26;;;;;;;46.30;28.70;;;;;;;0.02;87.28;101262.48;214656;1266;61064;-74
2023/01/26 03:57:59;;;;;;;43.10;29.20;;;;;;;0.05;87.53;101265.19;214473;1267;67249;-74
2023/01/26 04:08:25;;;;;;;45.20;28.60;;;;;;;0.05;87.56;101250.39;214488;1264;75403;-74
2023/01/26 04:23:56;;;;;;;42.60;27.60;;;;;;;0.04;87.41;101235.17;214472;1264;66809;-74
2023/01/26 04:28:49;;;;;;;45.20;28.50;;;;;;;0.05;87.45;101238.11;214671;1264;61301;-74
2023/01/26 04:33:44;;;;;;;47.70;28.60;;;;;;;0.05;87.45;101234.55;214536;1264;75254;-74
2023/01/26 04:38:40;;;;;;;43.60;28.60;;;;;;;0.04;87.58;101228.02;214603;1264;71933;-74
2023/01/26 04:43:33;;;;;;;46.50;30.20;;;;;;;0.03;87.33;101234.95;214529;1264;61272;-74
2023/01/26 04:48:29;;;;;;;48.50;29.80;;;;;;;0.04;87.60;101246.92;214552;1263;67487;-74
2023/01/26 04:53:23;;;;;;;45.80;28.50;;;;;;;0.05;87.59;101242.89;214539;1264;61207;-74
2023/01/26 04:58:16;;;;;;;48.50;29.80;;;;;;;0.03;87.46;101238.98;214528;1264;74432;-74
2023/01/26 05:03:09;;;;;;;47.40;29.50;;;;;;;0.02;87.43;101235.70;214746;1264;72615;-74
2023/01/26 05:08:06;;;;;;;46.60;28.70;;;;;;;0.02;87.48;101231.42;214541;1263;61826;-74
2023/01/26 05:12:59;;;;;;;44.40;28.90;;;;;;;0.00;87.48;101228.27;214520;1264;69015;-74
2023/01/26 05:18:01;;;;;;;46.90;29.10;;;;;;;0.01;87.63;101226.59;214607;1264;61328;-74
2023/01/26 05:23:14;;;;;;;43.40;26.60;;;;;;;0.01;87.68;101224.20;214270;1264;76094;-74
2023/01/26 05:28:28;;;;;;;41.80;27.10;;;;;;;0.01;87.64;101228.33;214636;1264;72560;-73
2023/01/26 05:33:21;;;;;;;41.40;26.10;;;;;;;0.02;87.75;101224.09;214481;1264;62872;-73
2023/01/26 05:38:16;;;;;;;39.00;25.20;;;;;;;0.03;87.80;101224.48;214635;1262;65992;-73
2023/01/26 05:43:12;;;;;;;41.10;26.60;;;;;;;0.02;87.74;101224.77;214447;1264;61337;-73
2023/01/26 05:48:28;;;;;;;37.70;23.50;;;;;;;0.01;87.85;101227.26;216904;1264;74376;-75
2023/01/26 05:53:21;;;;;;;45.60;28.80;;;;;;;-0.00;87.57;101225.69;215936;1264;73145;-73
2023/01/26 05:58:15;;;;;;;41.30;25.20;;;;;;;0.02;87.94;101226.13;215040;1265;60534;-73
2023/01/26 06:03:08;;;;;;;39.90;26.10;;;;;;;0.02;87.61;101221.36;214498;1264;61446;-73
2023/01/26 06:08:01;;;;;;;46.00;27.20;;;;;;;0.01;87.51;101222.16;214563;1264;61283;-73
2023/01/26 06:13:02;;;;;;;48.10;28.10;;;;;;;0.00;87.88;101229.11;214478;1264;76056;-74
2023/01/26 06:18:04;;;;;;;47.60;27.10;;;;;;;0.00;87.93;101235.25;214770;1267;72592;-74
2023/01/26 06:23:00;;;;;;;41.80;27.00;;;;;;;0.02;87.95;101238.60;214632;1264;61275;-74
2023/01/26 06:27:59;;;;;;;45.50;28.80;;;;;;;0.04;87.87;101232.57;214512;1264;67077;-74
2023/01/26 06:32:53;;;;;;;43.50;28.50;;;;;;;0.04;88.20;101237.23;214397;1264;61470;-74
2023/01/26 06:37:50;;;;;;;44.20;27.00;;;;;;;0.06;88.06;101234.43;214443;1263;75020;-74
2023/01/26 06:42:50;;;;;;;48.70;29.00;;;;;;;0.07;88.09;101230.91;214372;1263;72929;-74
2023/01/26 06:47:51;;;;;;;45.50;26.30;;;;;;;0.07;87.93;101227.00;214848;1264;61275;-74
2023/01/26 06:52:48;;;;;;;41.90;27.60;;;;;;;0.09;87.62;101232.05;214491;1263;65780;-74
2023/01/26 06:57:59;;;;;;;41.30;26.10;;;;;;;0.11;87.81;101226.77;217042;1263;59309;-74
2023/01/26 07:03:17;;;;;;;47.20;27.00;;;;;;;0.14;87.76;101228.17;214577;1263;76541;-74
2023/01/26 07:08:10;;;;;;;31.00;19.20;;;;;;;0.18;87.43;101225.39;214352;1263;71339;-74
2023/01/26 07:13:06;;;;;;;29.80;19.70;;;;;;;0.20;87.30;101216.64;214517;1264;61257;-74
2023/01/26 07:17:59;;;;;;;25.70;17.80;;;;;;;0.21;86.84;101218.55;214427;1264;66460;-74
2023/01/26 07:22:56;;;;;;;25.90;17.10;;;;;;;0.20;86.44;101215.43;214521;1263;61325;-75
2023/01/26 07:27:55;;;;;;;24.50;15.10;;;;;;;0.22;86.48;101208.58;214465;1264;74745;-74
2023/01/26 07:32:52;;;;;;;25.20;17.00;;;;;;;0.23;85.86;101206.40;214418;1264;72211;-75
2023/01/26 07:37:45;;;;;;;23.50;13.90;;;;;;;0.26;85.93;101204.23;216579;1263;61125;-76
2023/01/26 07:42:37;;;;;;;22.70;14.50;;;;;;;0.31;85.59;101193.83;215365;1264;61369;-75
2023/01/26 07:47:45;;;;;;;36.70;19.20;;;;;;;0.37;85.59;101193.20;214671;1264;64657;-75
2023/01/26 07:52:38;;;;;;;30.20;16.20;;;;;;;0.44;85.13;101197.35;214789;1263;75135;-75
2023/01/26 07:57:32;;;;;;;25.00;17.60;;;;;;;0.45;85.17;101194.71;215062;1264;73315;-76
2023/01/26 08:02:25;;;;;;;23.70;15.30;;;;;;;0.50;85.19;101196.77;215990;1263;61216;-74
2023/01/26 08:07:18;;;;;;;24.10;15.20;;;;;;;0.56;84.81;101191.17;214543;1263;67383;-74
2023/01/26 08:12:11;;;;;;;25.90;16.00;;;;;;;0.61;84.15;101186.19;214562;1267;61305;-74
2023/01/26 08:17:04;;;;;;;21.70;14.90;;;;;;;0.65;84.33;101185.99;214565;1264;61285;-74
2023/01/26 08:21:57;;;;;;;26.30;14.50;;;;;;;0.73;84.33;101187.52;214611;1265;71867;-74
2023/01/26 08:26:51;;;;;;;24.00;14.70;;;;;;;0.82;84.34;101184.34;214544;1264;61399;-74
2023/01/26 08:31:44;;;;;;;20.40;13.30;;;;;;;0.90;83.84;101186.19;214554;1264;68150;-76
2023/01/26 08:36:39;;;;;;;19.00;12.80;;;;;;;0.92;83.47;101180.54;214479;1263;61214;-74
2023/01/26 08:41:32;;;;;;;18.30;12.10;;;;;;;0.92;83.10;101176.60;214555;1264;75393;-75
2023/01/26 08:46:26;;;;;;;19.80;12.60;;;;;;;0.95;82.84;101179.17;214640;1264;72605;-75
2023/01/26 08:51:19;;;;;;;14.40;10.40;;;;;;;1.00;82.95;101188.52;214446;1264;61370;-75
2023/01/26 08:56:13;;;;;;;19.00;12.50;;;;;;;1.02;82.56;101190.16;214473;1264;67092;-75
2023/01/26 09:01:08;;;;;;;14.60;10.70;;;;;;;1.06;82.77;101192.85;214648;1264;61370;-76
2023/01/26 09:06:04;;;;;;;15.30;11.50;;;;;;;1.09;82.36;101197.48;214477;1265;74543;-75
2023/01/26 09:10:57;;;;;;;16.70;10.10;;;;;;;1.08;81.92;101204.89;214590;1264;72474;-75
2023/01/26 09:15:51;;;;;;;14.80;10.30;;;;;;;1.03;81.70;101205.24;214522;1265;61279;-76
2023/01/26 09:20:44;;;;;;;16.80;10.70;;;;;;;0.96;81.43;101208.95;214504;1264;68390;-76
2023/01/26 09:25:39;;;;;;;13.20;10.10;;;;;;;0.95;81.56;101209.36;214659;1263;61885;-76
2023/01/26 09:30:33;;;;;;;14.90;10.60;;;;;;;0.96;81.42;101209.08;214566;1264;74298;-76
2023/01/26 09:35:27;;;;;;;12.70;9.60;;;;;;;0.99;81.76;101206.36;214437;1264;71420;-76
2023/01/26 09:40:39;;;;;;;12.80;8.50;;;;;;;0.99;81.32;101203.99;214809;1262;61211;-76
2023/01/26 09:46:11;;;;;;;11.40;8.30;;;;;;;0.97;81.39;101196.33;214522;1264;66805;-76
2023/01/26 09:51:14;;;;;;;14.40;10.30;;;;;;;1.03;81.29;101197.95;213594;1271;61255;-76
2023/01/26 09:56:17;;;;;;;10.40;7.60;;;;;;;1.11;81.14;101190.57;213526;1271;74455;-75
2023/01/26 10:01:18;;;;;;;10.40;8.40;;;;;;;1.17;80.46;101185.46;213622;1276;72647;-76
2023/01/26 10:06:12;;;;;;;8.50;7.20;;;;;;;1.20;80.62;101180.05;213716;1273;61536;-76
2023/01/26 10:11:32;;;;;;;11.40;8.40;;;;;;;1.26;80.61;101165.21;213655;1271;68527;-75
2023/01/26 10:16:25;;;;;;;11.90;9.40;;;;;;;1.33;80.41;101170.41;213700;1270;61381;-75
2023/01/26 10:21:22;;;;;;;11.60;8.90;;;;;;;1.39;80.20;101168.41;213740;1271;61551;-75
2023/01/26 10:26:18;;;;;;;14.30;9.80;;;;;;;1.43;80.72;101164.55;213874;1267;71862;-76
2023/01/26 10:31:17;;;;;;;13.20;8.40;;;;;;;1.52;80.56;101155.87;214516;1262;61407;-75
2023/01/26 10:36:13;;;;;;;15.00;8.10;;;;;;;1.59;80.14;101146.55;214529;1264;65515;-74
2023/01/26 10:41:15;;;;;;;10.20;7.60;;;;;;;1.56;79.83;101142.60;214581;1264;61253;-76
2023/01/26 10:46:28;;;;;;;11.00;9.20;;;;;;;1.49;79.71;101137.55;214457;1264;74548;-75
2023/01/26 10:51:26;;;;;;;10.00;7.50;;;;;;;1.44;79.70;101133.48;214422;1264;72412;-76
2023/01/26 10:56:19;;;;;;;11.00;8.20;;;;;;;1.41;79.46;101134.34;214445;1264;61343;-75
2023/01/26 11:01:14;;;;;;;14.80;8.00;;;;;;;1.39;79.52;101121.06;214408;1267;61261;-78
2023/01/26 11:06:17;;;;;;;11.10;6.90;;;;;;;1.44;79.61;101112.01;214502;1264;61255;-78
2023/01/26 11:11:29;;;;;;;10.90;8.00;;;;;;;1.48;79.02;101095.99;214565;1264;73385;-75
2023/01/26 11:16:26;;;;;;;12.20;9.30;;;;;;;1.57;78.88;101091.88;214654;1263;72789;-73
2023/01/26 11:21:32;;;;;;;10.70;7.70;;;;;;;1.62;79.17;101089.29;214466;1264;61272;-73
2023/01/26 11:26:51;;;;;;;8.80;7.10;;;;;;;1.68;79.00;101080.06;214459;1264;66867;-73
2023/01/26 11:32:14;;;;;;;10.60;7.40;;;;;;;1.61;78.30;101072.17;214603;1264;61261;-73
2023/01/26 11:37:38;;;;;;;12.40;8.80;;;;;;;1.60;78.45;101066.76;214533;1265;74267;-73
2023/01/26 11:42:44;;;;;;;11.60;8.70;;;;;;;1.56;78.62;101062.07;214472;1265;72428;-72
2023/01/26 11:47:57;;;;;;;10.90;7.70;;;;;;;1.59;78.55;101056.98;214676;1262;61157;-73
2023/01/26 11:53:29;;;;;;;15.20;8.10;;;;;;;1.52;78.16;101054.36;214520;1264;67861;-73
2023/01/26 11:58:28;;;;;;;12.50;8.00;;;;;;;1.50;78.28;101048.63;214707;1265;61403;-73
2023/01/26 12:03:45;;;;;;;18.00;8.60;;;;;;;1.43;77.94;101046.70;214533;1267;73153;-74
2023/01/26 12:08:48;;;;;;;12.20;8.80;;;;;;;1.39;78.22;101040.13;214564;1264;73651;-73
2023/01/26 12:13:44;;;;;;;12.30;8.10;;;;;;;1.38;78.24;101044.50;214621;1264;61394;-73
2023/01/26 12:18:47;;;;;;;12.90;7.30;;;;;;;1.36;78.36;101039.42;214695;1264;66815;-75
2023/01/26 12:24:02;;;;;;;13.30;9.00;;;;;;;1.30;78.11;101029.36;214523;1266;61257;-74
2023/01/26 12:29:33;;;;;;;13.30;9.10;;;;;;;1.29;78.47;101022.93;214711;1263;74598;-75
2023/01/26 12:34:33;;;;;;;14.30;9.40;;;;;;;1.30;78.06;101020.77;214556;1263;73277;-73
2023/01/26 12:39:41;;;;;;;13.50;8.60;;;;;;;1.28;78.11;101023.24;214549;1264;61323;-74
2023/01/26 12:45:01;;;;;;;16.50;10.40;;;;;;;1.27;77.92;101030.66;214566;1264;66801;-75
2023/01/26 12:50:26;;;;;;;15.20;9.20;;;;;;;1.26;77.86;101036.76;214602;1264;61226;-73
2023/01/26 12:55:32;;;;;;;14.20;10.00;;;;;;;1.18;77.65;101035.27;214557;1264;73350;-74
2023/01/26 13:00:31;;;;;;;14.00;8.80;;;;;;;1.14;77.73;101040.02;214824;1264;72766;-73
2023/01/26 13:05:25;;;;;;;15.00;8.60;;;;;;;1.13;78.42;101037.05;214614;1265;61303;-73
2023/01/26 13:10:23;;;;;;;16.00;9.90;;;;;;;1.11;77.93;101032.16;214576;1264;65861;-73
2023/01/26 13:15:17;;;;;;;;;;;;;;;1.07;78.24;101030.07;214570;1264;61391;-74
2023/01/26 13:20:32;;;;;;;14.20;9.40;;;;;;;1.05;78.26;101019.31;214635;1264;73387;-74
2023/01/26 13:25:32;;;;;;;13.80;8.60;;;;;;;1.01;78.23;101025.34;214466;1265;71901;-73
2023/01/26 13:30:28;;;;;;;13.60;8.90;;;;;;;0.97;78.43;101016.09;214697;1264;61257;-73
2023/01/26 13:35:25;;;;;;;13.50;9.30;;;;;;;0.98;78.81;101010.38;214574;1264;66044;-73
2023/01/26 13:40:17;;;;;;;20.70;11.20;;;;;;;1.02;78.94;101015.23;214692;1264;61235;-74
2023/01/26 13:45:35;;;;;;;14.00;10.10;;;;;;;1.03;78.66;101011.00;214571;1264;61269;-74
2023/01/26 13:50:37;;;;;;;12.90;9.30;;;;;;;1.02;78.54;101009.24;214771;1264;73875;-74
2023/01/26 13:55:33;;;;;;;15.90;9.70;;;;;;;1.02;78.51;101000.69;214624;1264;61291;-74
2023/01/26 14:00:26;;;;;;;12.90;9.00;;;;;;;1.01;78.47;100999.09;214604;1264;67239;-73
2023/01/26 14:05:23;;;;;;;11.70;8.70;;;;;;;0.97;78.20;101004.48;214650;1264;70657;-73
2023/01/26 14:10:20;;;;;;;13.50;9.20;;;;;;;0.97;78.71;101012.67;214581;1267;74482;-74
2023/01/26 14:15:26;;;;;;;11.80;8.70;;;;;;;0.97;78.55;101011.46;214642;1264;72405;-74
2023/01/26 14:20:33;;;;;;;16.80;9.90;;;;;;;0.93;78.11;101008.66;214656;1264;61250;-73
2023/01/26 14:25:26;;;;;;;14.20;10.10;;;;;;;0.89;78.17;101006.73;214707;1264;66317;-74
2023/01/26 14:30:33;;;;;;;15.40;10.30;;;;;;;0.88;78.53;101006.68;214491;1265;61230;-72
2023/01/26 14:35:27;;;;;;;12.70;9.30;;;;;;;0.86;78.66;101000.40;214610;1265;74607;-72
2023/01/26 14:40:24;;;;;;;15.80;11.10;;;;;;;0.83;78.31;101002.58;214487;1265;71456;-72
2023/01/26 14:45:17;;;;;;;18.40;11.50;;;;;;;0.81;78.59;101001.79;214631;1264;61267;-72
2023/01/26 14:50:15;;;;;;;13.80;10.30;;;;;;;0.79;78.80;100990.23;214806;1265;67866;-72
2023/01/26 14:55:16;;;;;;;16.40;10.50;;;;;;;0.77;78.71;100987.06;214593;1265;61309;-73
2023/01/26 15:00:32;;;;;;;16.40;11.10;;;;;;;0.71;78.37;100990.47;214566;1265;73389;-72
2023/01/26 15:05:37;;;;;;;14.20;10.80;;;;;;;0.66;78.26;100989.80;214735;1263;73295;-72
2023/01/26 15:10:42;;;;;;;14.20;10.40;;;;;;;0.64;78.61;100991.23;214659;1265;62123;-72
2023/01/26 15:15:41;;;;;;;15.20;10.50;;;;;;;0.63;78.44;100993.19;214476;1265;64815;-72
2023/01/26 15:20:34;;;;;;;19.10;12.00;;;;;;;0.61;78.94;100986.61;214702;1266;61290;-72
2023/01/26 15:25:29;;;;;;;16.20;10.60;;;;;;;0.60;78.84;100982.31;214569;1265;65379;-72
2023/01/26 15:30:30;;;;;;;12.00;9.80;;;;;;;0.59;78.72;100990.45;214529;1265;71530;-72
2023/01/26 15:35:23;;;;;;;17.50;10.80;;;;;;;0.57;78.81;100981.59;214605;1263;61290;-72
2023/01/26 15:40:16;;;;;;;18.50;11.10;;;;;;;0.55;78.99;100979.26;214655;1266;61248;-72
2023/01/26 15:45:32;;;;;;;17.50;10.30;;;;;;;0.53;79.38;100986.67;214646;1265;61329;-72
2023/01/26 15:50:25;;;;;;;14.40;10.20;;;;;;;0.51;79.44;100990.45;214823;1264;75572;-72
2023/01/26 15:55:24;;;;;;;22.00;13.70;;;;;;;0.50;79.59;100991.88;214669;1265;72590;-73
2023/01/26 16:00:18;;;;;;;17.70;12.20;;;;;;;0.46;79.36;100991.96;214553;1265;61339;-72
2023/01/26 16:05:17;;;;;;;22.70;12.80;;;;;;;0.44;79.55;100998.37;214666;1265;65630;-72
2023/01/26 16:10:11;;;;;;;17.70;11.80;;;;;;;0.42;79.33;100997.71;214657;1263;61382;-72
2023/01/26 16:15:31;;;;;;;19.60;13.20;;;;;;;0.37;79.11;100996.91;214746;1264;74412;-72
2023/01/26 16:20:23;;;;;;;21.00;14.40;;;;;;;0.34;79.08;100997.45;214633;1267;71708;-72
2023/01/26 16:25:26;;;;;;;20.40;13.90;;;;;;;0.34;79.30;100999.63;214646;1265;61177;-72
2023/01/26 16:30:19;;;;;;;27.80;15.40;;;;;;;0.35;79.61;101000.06;215236;1265;67095;-72
2023/01/26 16:35:14;;;;;;;21.80;14.70;;;;;;;0.33;78.93;101000.95;214621;1265;61349;-72
2023/01/26 16:40:09;;;;;;;18.40;13.30;;;;;;;0.32;79.33;101008.54;214631;1265;73342;-72
2023/01/26 16:45:02;;;;;;;24.60;14.90;;;;;;;0.32;79.31;101007.23;214621;1265;73192;-72
2023/01/26 16:49:55;;;;;;;21.80;14.70;;;;;;;0.32;79.38;101007.04;214686;1265;61219;-72
2023/01/26 16:54:48;;;;;;;21.40;13.30;;;;;;;0.33;79.53;101008.60;214603;1268;67911;-72
2023/01/26 16:59:42;;;;;;;27.50;13.80;;;;;;;0.32;79.19;101006.15;214575;1265;61768;-72
2023/01/26 17:04:35;;;;;;;18.40;13.40;;;;;;;0.31;79.50;101009.49;214542;1264;74683;-73
2023/01/26 17:09:29;;;;;;;17.60;12.40;;;;;;;0.31;79.49;101012.23;214472;1264;61280;-73
2023/01/26 17:14:23;;;;;;;21.40;12.90;;;;;;;0.30;79.78;101006.54;214365;1264;61307;-72
2023/01/26 17:19:16;;;;;;;19.00;13.40;;;;;;;0.28;79.30;101004.03;214481;1266;67924;-73
2023/01/26 17:24:10;;;;;;;20.10;14.60;;;;;;;0.26;79.28;101004.37;214473;1264;62631;-73
2023/01/26 17:29:03;;;;;;;24.30;13.60;;;;;;;0.25;79.62;100999.95;214565;1266;75536;-73
2023/01/26 17:33:56;;;;;;;22.10;14.40;;;;;;;0.27;79.49;100996.59;214511;1267;71552;-73
2023/01/26 17:38:49;;;;;;;19.90;13.80;;;;;;;0.24;79.39;100997.95;214539;1268;61228;-73
2023/01/26 17:43:42;;;;;;;24.00;14.90;;;;;;;0.25;79.42;100993.43;214711;1264;67199;-73
2023/01/26 17:48:37;;;;;;;25.80;16.50;;;;;;;0.25;79.40;100989.16;214641;1267;61276;-73
2023/01/26 17:53:30;;;;;;;21.80;14.90;;;;;;;0.24;79.34;100987.57;214557;1262;74360;-73
2023/01/26 17:58:23;;;;;;;30.20;16.70;;;;;;;0.22;78.87;100984.70;214469;1262;73423;-73
2023/01/26 18:03:16;;;;;;;32.60;19.60;;;;;;;0.19;78.87;100978.73;214666;1265;61313;-73
2023/01/26 18:08:09;;;;;;;26.10;17.80;;;;;;;0.20;78.72;100985.10;214511;1265;67800;-73
2023/01/26 18:13:02;;;;;;;28.30;18.30;;;;;;;0.18;78.58;100989.61;214574;1264;61258;-73
2023/01/26 18:17:56;;;;;;;33.30;20.00;;;;;;;0.17;78.19;100991.05;214450;1264;61305;-73
2023/01/26 18:22:49;;;;;;;32.80;22.50;;;;;;;0.16;78.35;100988.06;214467;1263;71931;-73
2023/01/26 18:27:42;;;;;;;32.00;17.90;;;;;;;0.16;78.35;100990.96;214256;1266;61379;-72
2023/01/26 18:32:37;;;;;;;32.00;20.60;;;;;;;0.15;78.16;100990.75;215392;1266;66794;-73
2023/01/26 18:37:32;;;;;;;30.00;19.80;;;;;;;0.15;78.23;100989.40;215236;1266;61290;-74
2023/01/26 18:42:27;;;;;;;33.80;21.40;;;;;;;0.16;78.58;100983.98;215190;1264;74366;-73
2023/01/26 18:47:22;;;;;;;27.60;16.50;;;;;;;0.16;78.34;100984.88;214636;1265;73174;-73
2023/01/26 18:52:15;;;;;;;38.80;22.80;;;;;;;0.15;78.11;100988.86;214449;1265;61379;-74
2023/01/26 18:57:08;;;;;;;34.10;22.50;;;;;;;0.14;78.62;100994.44;214665;1267;61246;-73
2023/01/26 19:02:01;;;;;;;35.70;22.80;;;;;;;0.15;78.31;100996.21;214638;1263;63050;-72
2023/01/26 19:06:54;;;;;;;39.10;23.40;;;;;;;0.13;78.09;100997.95;214461;1266;74466;-72
2023/01/26 19:11:47;;;;;;;39.40;24.70;;;;;;;0.12;78.25;100995.69;214651;1266;61304;-72
2023/01/26 19:16:42;;;;;;;36.10;22.70;;;;;;;0.12;78.47;100995.34;214439;1264;61334;-73
2023/01/26 19:21:36;;;;;;;36.70;23.00;;;;;;;0.13;78.69;101002.88;214573;1263;67455;-73
2023/01/26 19:26:29;;;;;;;40.00;24.50;;;;;;;0.13;78.49;101002.73;214517;1264;61267;-73
2023/01/26 19:31:30;;;;;;;37.40;23.20;;;;;;;0.10;78.50;101004.09;214496;1262;74285;-72
2023/01/26 19:37:01;;;;;;;47.70;24.50;;;;;;;0.11;78.29;101010.25;214377;1264;71255;-73
2023/01/26 19:41:54;;;;;;;38.20;23.20;;;;;;;0.11;78.28;101009.08;214512;1268;61361;-72
2023/01/26 19:46:50;;;;;;;38.80;23.20;;;;;;;0.10;78.41;101001.31;214523;1264;61338;-73
2023/01/26 19:51:43;;;;;;;37.80;23.50;;;;;;;0.09;78.40;100997.66;214519;1264;61272;-72
2023/01/26 19:56:36;;;;;;;31.70;21.30;;;;;;;0.06;78.53;100994.11;214578;1262;61328;-73
2023/01/26 20:01:30;;;;;;;33.70;22.20;;;;;;;0.06;78.78;100994.81;214439;1263;72564;-72
2023/01/26 20:06:25;;;;;;;41.00;22.30;;;;;;;0.06;78.85;100998.21;214579;1263;61192;-72
2023/01/26 20:11:23;;;;;;;37.50;22.70;;;;;;;0.06;78.68;100997.14;214437;1264;66454;-72
2023/01/26 20:16:17;;;;;;;37.40;21.80;;;;;;;0.04;78.84;100989.90;214485;1266;61338;-73
2023/01/26 20:21:10;;;;;;;34.30;22.60;;;;;;;0.03;78.77;100987.58;214526;1264;75616;-73
2023/01/26 20:26:06;;;;;;;40.60;23.70;;;;;;;0.02;79.03;100983.76;214407;1263;61232;-72
2023/01/26 20:31:12;;;;;;;41.70;25.10;;;;;;;-0.00;78.56;100984.69;214423;1268;61350;-73
2023/01/26 20:36:10;;;;;;;41.90;26.00;;;;;;;-0.01;78.90;100979.91;214491;1264;67075;-72
2023/01/26 20:41:07;;;;;;;41.30;26.10;;;;;;;-0.01;78.66;100984.48;214473;1268;61253;-72
2023/01/26 20:46:00;;;;;;;42.20;24.20;;;;;;;-0.02;78.71;100982.19;214513;1267;73596;-72
2023/01/26 20:50:53;;;;;;;40.30;22.30;;;;;;;-0.03;78.71;100991.50;214401;1268;61281;-72
2023/01/26 20:55:46;;;;;;;38.50;24.40;;;;;;;-0.02;78.93;100988.20;214325;1263;61358;-72
2023/01/26 21:00:39;;;;;;;40.10;24.20;;;;;;;-0.03;78.73;100990.29;214352;1264;64024;-72
2023/01/26 21:05:32;;;;;;;36.40;23.20;;;;;;;-0.04;78.72;100985.29;214457;1267;61275;-72
2023/01/26 21:10:25;;;;;;;45.00;26.20;;;;;;;-0.03;78.96;100984.89;214301;1263;62750;-72
2023/01/26 21:15:18;;;;;;;40.00;25.80;;;;;;;-0.02;78.92;100985.27;214422;1264;61969;-72
2023/01/26 21:20:12;;;;;;;39.90;23.70;;;;;;;-0.03;78.85;100986.36;214357;1267;61272;-73
2023/01/26 21:25:06;;;;;;;37.30;24.10;;;;;;;-0.05;78.88;100987.48;214447;1267;67496;-72
2023/01/26 21:29:59;;;;;;;41.60;24.00;;;;;;;-0.06;79.17;100980.27;214468;1267;61287;-72
2023/01/26 21:34:51;;;;;;;41.10;23.30;;;;;;;-0.08;79.09;100981.65;214460;1267;61375;-73
2023/01/26 21:39:44;;;;;;;33.60;22.20;;;;;;;-0.09;79.46;100983.60;214361;1264;61254;-72
2023/01/26 21:45:51;;;;;;;32.10;21.20;;;;;;;-0.11;79.54;100976.85;214339;1266;61272;-72
2023/01/26 21:49:52;;;;;;;41.50;23.60;;;;;;;-0.13;79.45;100983.36;214358;1264;66866;-72
2023/01/26 21:54:45;;;;;;;41.00;23.20;;;;;;;-0.14;79.15;100986.73;214320;1264;61326;-72
2023/01/26 21:59:39;;;;;;;36.20;21.70;;;;;;;-0.13;79.31;100987.11;214372;1267;73720;-72
2023/01/26 22:04:31;;;;;;;38.90;23.80;;;;;;;-0.15;79.32;100984.73;214464;1264;61361;-72
2023/01/26 22:09:25;;;;;;;35.00;20.70;;;;;;;-0.14;79.60;100983.45;214346;1264;61157;-72
2023/01/26 22:14:23;;;;;;;37.00;21.40;;;;;;;-0.14;79.47;100978.03;214377;1264;66786;-72
2023/01/26 22:19:16;;;;;;;38.40;21.90;;;;;;;-0.13;79.70;100984.58;214447;1264;61242;-72
2023/01/26 22:24:10;;;;;;;31.10;19.70;;;;;;;-0.11;79.84;100985.73;214393;1264;61602;-73
2023/01/26 22:29:05;;;;;;;33.60;20.10;;;;;;;-0.12;79.88;100978.68;214348;1264;73402;-72
2023/01/26 22:34:02;;;;;;;36.00;19.90;;;;;;;-0.13;79.81;100974.34;214776;1264;61237;-72
2023/01/26 22:38:56;;;;;;;;;;;;;;;-0.14;79.92;100973.75;214388;1264;66930;-72
2023/01/26 22:43:53;;;;;;;29.30;16.40;;;;;;;-0.16;79.93;100970.26;214265;1264;61369;-72
2023/01/26 22:48:46;;;;;;;28.60;17.70;;;;;;;-0.18;79.74;100967.02;214314;1264;74683;-72
2023/01/26 22:53:40;;;;;;;34.60;19.90;;;;;;;-0.20;80.04;100967.04;214255;1264;73328;-71
2023/01/26 22:58:34;;;;;;;26.60;18.50;;;;;;;-0.21;80.09;100968.38;214332;1263;61359;-71
2023/01/26 23:03:41;;;;;;;36.70;21.40;;;;;;;-0.20;80.06;100964.70;214379;1264;66945;-71
2023/01/26 23:08:34;;;;;;;31.50;19.40;;;;;;;-0.19;79.99;100962.02;214400;1267;62077;-72